Terminal Aerodrome Forecast
Issued by NWS Upton, NY

Home | Current Version | Previous Version | Text Only | Print | Product List | Glossary On
Versions: 1 2 3 4 5 6 7 8 9 10 11 12 13 14 15 16 17 18 19 20 21 22 23 24 25 26 27 28 29 30 31 32 33 34 35
000
FTUS41 KOKX 031257 AAB
TAFJFK
TAF AMD
KJFK 031257Z 0313/0418 02008KT P6SM SCT015 BKN070
     FM031400 05009KT P6SM SCT020 BKN060
     FM031700 11012KT P6SM FEW040 BKN250
     FM040000 10009KT P6SM BKN250
     FM040600 06007KT P6SM BKN080
     FM041100 06011G17KT P6SM OVC060=

USA.gov is the U.S. government's official web portal to all federal, state and local government web resources and services.